createdAt,value
2019-01-04T00:00:38.574Z,0
2019-01-04T00:03:44.479Z,0
2019-01-04T00:06:50.454Z,0
2019-01-04T00:09:56.604Z,0
2019-01-04T00:13:02.578Z,0
2019-01-04T00:16:08.523Z,0
2019-01-04T00:19:14.603Z,0
2019-01-04T00:22:20.557Z,0
2019-01-04T00:25:26.430Z,0
2019-01-04T00:28:32.325Z,0
2019-01-04T00:31:38.284Z,0
2019-01-04T00:34:46.901Z,0
2019-01-04T00:37:52.914Z,0
2019-01-04T00:40:58.844Z,0
2019-01-04T00:44:04.823Z,0
2019-01-04T00:47:10.898Z,0
2019-01-04T00:50:16.773Z,0
2019-01-04T00:53:22.701Z,0
2019-01-04T00:56:31.340Z,0
2019-01-04T00:59:37.297Z,0
2019-01-04T01:02:43.162Z,0
2019-01-04T01:05:49.217Z,0
2019-01-04T01:08:55.093Z,0
2019-01-04T01:12:01.126Z,0
2019-01-04T01:15:07.082Z,0
2019-01-04T01:18:13.056Z,0
2019-01-04T01:21:18.949Z,0
2019-01-04T01:24:24.974Z,0
2019-01-04T01:27:30.894Z,0
2019-01-04T01:30:36.900Z,0
2019-01-04T01:33:42.858Z,0
2019-01-04T01:36:48.798Z,0
2019-01-04T01:39:54.877Z,0
2019-01-04T01:43:00.800Z,0
2019-01-04T01:46:06.794Z,0
2019-01-04T01:49:12.661Z,0
2019-01-04T01:52:18.712Z,0
2019-01-04T01:55:24.582Z,0
2019-01-04T01:58:30.539Z,0
2019-01-04T02:01:36.430Z,0
2019-01-04T02:04:42.349Z,0.4
2019-01-04T02:07:48.215Z,0
2019-01-04T02:10:54.174Z,0
2019-01-04T02:14:00.090Z,0
2019-01-04T02:17:06.060Z,0
2019-01-04T02:20:12.022Z,0
2019-01-04T02:23:17.987Z,0
2019-01-04T02:26:24.101Z,0
2019-01-04T02:29:29.971Z,0
2019-01-04T02:32:35.965Z,0
2019-01-04T02:35:42.021Z,0
2019-01-04T02:38:47.908Z,0
2019-01-04T02:41:53.891Z,0
2019-01-04T02:44:59.898Z,0
2019-01-04T02:48:05.872Z,0
2019-01-04T02:51:11.927Z,0
2019-01-04T02:54:18.008Z,0
2019-01-04T02:57:23.870Z,0
2019-01-04T03:00:29.813Z,0
2019-01-04T03:03:35.746Z,0
2019-01-04T03:06:41.821Z,0
2019-01-04T03:09:47.887Z,0
2019-01-04T03:12:53.971Z,0
2019-01-04T03:15:59.886Z,0
2019-01-04T03:19:05.860Z,0
2019-01-04T03:22:11.744Z,0
2019-01-04T03:25:17.729Z,0
2019-01-04T03:28:26.597Z,0
2019-01-04T03:31:32.566Z,0
2019-01-04T03:34:38.632Z,0
2019-01-04T03:37:44.717Z,0
2019-01-04T03:40:50.652Z,0
2019-01-04T03:43:56.716Z,0
2019-01-04T03:47:02.730Z,0
2019-01-04T03:50:08.813Z,0
2019-01-04T03:53:14.792Z,0.8
2019-01-04T03:56:20.701Z,112.3
2019-01-04T03:59:26.609Z,133.9
2019-01-04T04:02:32.501Z,140.4
2019-01-04T04:05:38.457Z,143.3
2019-01-04T04:08:44.483Z,144
2019-01-04T04:11:50.361Z,144.7
2019-01-04T04:14:56.300Z,145.4
2019-01-04T04:18:02.185Z,145.4
2019-01-04T04:21:08.131Z,144.7
2019-01-04T04:24:14.184Z,145.4
2019-01-04T04:27:20.401Z,145.4
2019-01-04T04:30:26.319Z,145.4
2019-01-04T04:33:32.375Z,145.4
2019-01-04T04:36:38.533Z,145.4
2019-01-04T04:39:44.597Z,147.6
2019-01-04T04:42:50.668Z,146.9
2019-01-04T04:45:56.613Z,147.6
2019-01-04T04:49:02.574Z,146.9
2019-01-04T04:52:08.635Z,146.9
2019-01-04T04:55:15.515Z,146.9
2019-01-04T04:58:21.473Z,146.9
2019-01-04T05:01:27.435Z,146.9
2019-01-04T05:04:33.538Z,146.2
2019-01-04T05:07:39.482Z,146.9
2019-01-04T05:10:45.516Z,146.9
2019-01-04T05:13:51.397Z,146.9
2019-01-04T05:16:57.332Z,146.2
2019-01-04T05:20:03.394Z,146.9
2019-01-04T05:23:09.265Z,146.2
2019-01-04T05:26:15.152Z,146.9
2019-01-04T05:29:21.176Z,146.2
2019-01-04T05:32:27.231Z,146.2
2019-01-04T05:35:33.121Z,148.3
2019-01-04T05:38:39.152Z,130.3
2019-01-04T05:41:45.115Z,147.6
2019-01-04T05:44:51.185Z,144
2019-01-04T05:47:57.234Z,146.9
2019-01-04T05:51:03.191Z,148.3
2019-01-04T05:54:09.068Z,148.3
2019-01-04T05:57:17.569Z,148.3
2019-01-04T06:00:26.891Z,149
2019-01-04T06:03:32.885Z,146.9
2019-01-04T06:06:38.741Z,144.7
2019-01-04T06:09:44.683Z,146.9
2019-01-04T06:12:50.657Z,148.3
2019-01-04T06:15:56.618Z,147.6
2019-01-04T06:19:02.562Z,146.9
2019-01-04T06:22:08.529Z,146.9
2019-01-04T06:25:14.419Z,146.9
2019-01-04T06:28:20.427Z,150.5
2019-01-04T06:31:26.400Z,150.5
2019-01-04T06:34:32.273Z,150.5
2019-01-04T06:37:38.222Z,149.8
2019-01-04T06:40:44.123Z,151.9
2019-01-04T06:43:50.147Z,151.9
2019-01-04T06:46:56.207Z,152.6
2019-01-04T06:50:04.985Z,153.4
2019-01-04T06:53:10.996Z,154.1
2019-01-04T06:56:17.065Z,152.6
2019-01-04T06:59:23.119Z,153.4
2019-01-04T07:02:29.180Z,153.4
2019-01-04T07:05:35.155Z,152.6
2019-01-04T07:08:41.100Z,151.2
2019-01-04T07:11:48.154Z,154.1
2019-01-04T07:14:54.039Z,156.2
2019-01-04T07:17:59.998Z,154.8
2019-01-04T07:21:06.069Z,157
2019-01-04T07:24:11.965Z,159.8
2019-01-04T07:27:18.079Z,160.6
2019-01-04T07:30:24.149Z,161.3
2019-01-04T07:33:30.208Z,162
2019-01-04T07:36:36.273Z,164.2
2019-01-04T07:39:42.223Z,164.2
2019-01-04T07:42:48.106Z,162
2019-01-04T07:45:56.124Z,162.7
2019-01-04T07:49:04.093Z,163.4
2019-01-04T07:52:10.150Z,162.7
2019-01-04T07:55:16.129Z,163.4
2019-01-04T07:58:22.075Z,164.2
2019-01-04T08:01:28.362Z,163.4
2019-01-04T08:04:34.401Z,166.3
2019-01-04T08:07:40.447Z,167
2019-01-04T08:10:46.839Z,166.3
2019-01-04T08:13:55.255Z,165.6
2019-01-04T08:17:01.219Z,164.2
2019-01-04T08:20:07.155Z,164.2
2019-01-04T08:23:13.132Z,165.6
2019-01-04T08:26:19.009Z,165.6
2019-01-04T08:29:25.053Z,164.2
2019-01-04T08:32:31.318Z,164.2
2019-01-04T08:35:37.278Z,164.2
2019-01-04T08:38:43.415Z,163.4
2019-01-04T08:41:49.357Z,160.6
2019-01-04T08:44:55.353Z,162
2019-01-04T08:48:01.323Z,163.4
2019-01-04T08:51:07.211Z,165.6
2019-01-04T08:54:13.252Z,167
2019-01-04T08:57:19.116Z,167.8
2019-01-04T09:00:25.132Z,168.5
2019-01-04T09:03:31.107Z,154.1
2019-01-04T09:06:37.207Z,169.2
2019-01-04T09:09:43.127Z,168.5
2019-01-04T09:12:49.215Z,169.2
2019-01-04T09:15:55.087Z,154.8
2019-01-04T09:19:01.016Z,155.5
2019-01-04T09:22:06.970Z,155.5
2019-01-04T09:25:13.250Z,157.7
2019-01-04T09:28:21.140Z,149.8
2019-01-04T09:31:27.217Z,151.2
2019-01-04T09:34:33.277Z,155.5
2019-01-04T09:37:39.328Z,156.2
2019-01-04T09:40:45.292Z,156.2
2019-01-04T09:43:52.473Z,156.2
2019-01-04T09:46:59.426Z,156.2
2019-01-04T09:50:06.432Z,156.2
2019-01-04T09:53:12.502Z,155.5
2019-01-04T09:56:18.472Z,154.1
2019-01-04T09:59:24.536Z,154.8
2019-01-04T10:02:31.517Z,160.6
2019-01-04T10:05:37.546Z,155.5
2019-01-04T10:08:48.026Z,164.2
2019-01-04T10:11:55.086Z,165.6
2019-01-04T10:15:01.103Z,168.5
2019-01-04T10:18:07.051Z,168.5
2019-01-04T10:21:13.017Z,167.8
2019-01-04T10:24:18.962Z,171.4
2019-01-04T10:27:24.837Z,174.2
2019-01-04T10:30:30.830Z,172.1
2019-01-04T10:33:39.535Z,168.5
2019-01-04T10:36:45.468Z,170.6
2019-01-04T10:39:51.421Z,172.1
2019-01-04T10:42:57.476Z,173.5
2019-01-04T10:46:03.449Z,172.1
2019-01-04T10:49:09.404Z,172.8
2019-01-04T10:52:15.297Z,172.1
2019-01-04T10:55:21.230Z,175.7
2019-01-04T10:58:27.104Z,168.5
2019-01-04T11:01:33.140Z,167.8
2019-01-04T11:04:39.235Z,167
2019-01-04T11:07:45.260Z,168.5
2019-01-04T11:10:51.429Z,166.3
2019-01-04T11:13:57.383Z,164.2
2019-01-04T11:17:03.362Z,162.7
2019-01-04T11:20:09.304Z,141.8
2019-01-04T11:23:16.394Z,164.2
2019-01-04T11:26:22.461Z,171.4
2019-01-04T11:29:28.513Z,172.1
2019-01-04T11:32:34.454Z,151.2
2019-01-04T11:35:41.455Z,147.6
2019-01-04T11:38:47.335Z,141.8
2019-01-04T11:41:53.296Z,136.8
2019-01-04T11:44:59.487Z,141.8
2019-01-04T11:48:05.350Z,165.6
2019-01-04T11:51:11.662Z,164.9
2019-01-04T11:54:17.679Z,164.2
2019-01-04T11:57:23.680Z,168.5
2019-01-04T12:00:29.866Z,167.8
2019-01-04T12:03:35.728Z,143.3
2019-01-04T12:06:44.218Z,154.1
2019-01-04T12:09:50.260Z,148.3
2019-01-04T12:12:58.638Z,148.3
2019-01-04T12:16:05.692Z,149.8
2019-01-04T12:19:11.759Z,149.8
2019-01-04T12:22:17.823Z,144
2019-01-04T12:25:23.932Z,150.5
2019-01-04T12:28:29.894Z,152.6
2019-01-04T12:31:35.925Z,151.2
2019-01-04T12:34:42.086Z,151.2
2019-01-04T12:37:48.124Z,151.2
2019-01-04T12:40:54.356Z,151.9
2019-01-04T12:44:01.589Z,152.6
2019-01-04T12:47:07.550Z,151.9
2019-01-04T12:50:13.516Z,151.9
2019-01-04T12:53:19.845Z,151.9
2019-01-04T12:56:25.726Z,151.9
2019-01-04T12:59:31.697Z,150.5
2019-01-04T13:02:37.566Z,149
2019-01-04T13:05:43.597Z,149.8
2019-01-04T13:08:49.559Z,151.9
2019-01-04T13:11:55.520Z,154.1
2019-01-04T13:15:01.479Z,154.1
2019-01-04T13:18:07.537Z,147.6
2019-01-04T13:21:13.456Z,144.7
2019-01-04T13:24:19.663Z,146.2
2019-01-04T13:27:25.658Z,151.9
2019-01-04T13:30:31.687Z,151.9
2019-01-04T13:33:37.747Z,150.5
2019-01-04T13:36:43.625Z,149
2019-01-04T13:39:49.727Z,146.2
2019-01-04T13:42:55.625Z,148.3
2019-01-04T13:46:01.597Z,143.3
2019-01-04T13:49:07.542Z,144
2019-01-04T13:52:13.607Z,142.6
2019-01-04T13:55:20.596Z,142.6
2019-01-04T13:58:27.010Z,143.3
2019-01-04T14:01:32.989Z,141.1
2019-01-04T14:04:39.424Z,141.8
2019-01-04T14:07:46.423Z,141.8
2019-01-04T14:10:52.552Z,141.8
2019-01-04T14:13:58.391Z,141.8
2019-01-04T14:17:04.455Z,141.8
2019-01-04T14:20:13.075Z,141.1
2019-01-04T14:23:18.945Z,140.4
2019-01-04T14:26:24.896Z,139.7
2019-01-04T14:29:30.868Z,139.7
2019-01-04T14:32:36.897Z,139.7
2019-01-04T14:35:43.284Z,139.7
2019-01-04T14:38:50.631Z,139.7
2019-01-04T14:41:57.239Z,139.7
2019-01-04T14:45:04.240Z,139.7
2019-01-04T14:48:10.200Z,139.7
2019-01-04T14:51:16.257Z,137.5
2019-01-04T14:54:23.556Z,142.6
2019-01-04T14:57:29.723Z,142.6
2019-01-04T15:00:35.774Z,143.3
2019-01-04T15:03:41.886Z,143.3
2019-01-04T15:06:47.859Z,143.3
2019-01-04T15:09:53.853Z,143.3
2019-01-04T15:12:59.920Z,143.3
2019-01-04T15:16:05.874Z,142.6
2019-01-04T15:19:11.909Z,142.6
2019-01-04T15:22:17.935Z,147.6
2019-01-04T15:25:23.856Z,146.9
2019-01-04T15:28:29.905Z,147.6
2019-01-04T15:31:37.888Z,147.6
2019-01-04T15:34:43.940Z,147.6
2019-01-04T15:37:49.816Z,147.6
2019-01-04T15:40:55.806Z,147.6
2019-01-04T15:44:01.977Z,143.3
2019-01-04T15:47:07.928Z,143.3
2019-01-04T15:50:13.891Z,140.4
2019-01-04T15:53:20.052Z,146.9
2019-01-04T15:56:25.973Z,146.9
2019-01-04T15:59:32.125Z,146.9
2019-01-04T16:02:38.136Z,148.3
2019-01-04T16:05:47.041Z,147.6
2019-01-04T16:08:55.777Z,145.4
2019-01-04T16:12:01.672Z,639.4
2019-01-04T16:15:07.797Z,636.5
2019-01-04T16:18:13.768Z,633.6
2019-01-04T16:21:19.726Z,630.7
2019-01-04T16:24:25.694Z,630.7
2019-01-04T16:27:31.569Z,630.7
2019-01-04T16:30:37.607Z,630.7
2019-01-04T16:33:43.796Z,630.7
2019-01-04T16:36:49.852Z,630.7
2019-01-04T16:39:55.724Z,630.7
2019-01-04T16:43:01.761Z,627.8
2019-01-04T16:46:07.710Z,627.8
2019-01-04T16:49:13.620Z,627.8
2019-01-04T16:52:19.628Z,127.4
2019-01-04T16:55:25.591Z,141.1
2019-01-04T16:58:31.546Z,141.8
2019-01-04T17:01:37.609Z,142.6
2019-01-04T17:04:43.488Z,142.6
2019-01-04T17:07:49.431Z,141.8
2019-01-04T17:10:55.494Z,142.6
2019-01-04T17:14:01.450Z,142.6
2019-01-04T17:17:07.411Z,143.3
2019-01-04T17:20:13.365Z,143.3
2019-01-04T17:23:19.241Z,141.8
2019-01-04T17:26:25.186Z,142.6
2019-01-04T17:29:31.145Z,142.6
2019-01-04T17:32:37.206Z,142.6
2019-01-04T17:35:43.169Z,143.3
2019-01-04T17:38:49.036Z,142.6
2019-01-04T17:41:55.098Z,142.6
2019-01-04T17:45:01.049Z,141.1
2019-01-04T17:48:07.004Z,141.1
2019-01-04T17:51:12.962Z,141.1
2019-01-04T17:54:21.948Z,141.1
2019-01-04T17:57:28.010Z,141.1
2019-01-04T18:00:34.018Z,141.1
2019-01-04T18:03:40.008Z,141.1
2019-01-04T18:06:45.939Z,141.1
2019-01-04T18:09:51.946Z,141.1
2019-01-04T18:12:57.857Z,141.8
2019-01-04T18:16:03.821Z,141.1
2019-01-04T18:19:09.682Z,141.1
2019-01-04T18:22:15.638Z,141.8
2019-01-04T18:25:21.593Z,141.8
2019-01-04T18:28:27.457Z,141.8
2019-01-04T18:31:33.370Z,141.8
2019-01-04T18:34:39.250Z,141.8
2019-01-04T18:37:45.226Z,141.8
2019-01-04T18:40:51.187Z,141.8
2019-01-04T18:43:57.052Z,141.1
2019-01-04T18:47:03.156Z,141.8
2019-01-04T18:50:09.063Z,141.1
2019-01-04T18:53:15.025Z,141.8
2019-01-04T18:56:20.894Z,141.8
2019-01-04T18:59:26.846Z,141.1
2019-01-04T19:02:32.801Z,141.8
2019-01-04T19:05:38.670Z,141.8
2019-01-04T19:08:44.621Z,141.8
2019-01-04T19:11:50.575Z,141.8
2019-01-04T19:14:56.533Z,142.6
2019-01-04T19:18:02.469Z,142.6
2019-01-04T19:21:08.452Z,0
2019-01-04T19:24:14.425Z,0
2019-01-04T19:27:20.384Z,0
2019-01-04T19:30:26.445Z,0
2019-01-04T19:33:32.303Z,0
2019-01-04T19:36:38.243Z,0
2019-01-04T19:39:44.224Z,0
2019-01-04T19:42:50.178Z,0
2019-01-04T19:45:56.139Z,0
2019-01-04T19:49:02.096Z,0
2019-01-04T19:52:08.046Z,0
2019-01-04T19:55:13.935Z,0
2019-01-04T19:58:19.806Z,0
2019-01-04T20:01:25.719Z,0
2019-01-04T20:04:32.781Z,0
2019-01-04T20:07:38.769Z,0
2019-01-04T20:10:44.730Z,0
2019-01-04T20:13:50.698Z,0
2019-01-04T20:16:56.757Z,0
2019-01-04T20:20:02.713Z,0
2019-01-04T20:23:08.671Z,0
2019-01-04T20:26:14.631Z,0
2019-01-04T20:29:20.583Z,0
2019-01-04T20:32:26.456Z,0
2019-01-04T20:35:35.496Z,0
2019-01-04T20:38:41.361Z,0
2019-01-04T20:41:47.289Z,0
2019-01-04T20:44:53.161Z,0
2019-01-04T20:47:59.116Z,0
2019-01-04T20:51:04.983Z,0
2019-01-04T20:54:10.921Z,0
2019-01-04T20:57:16.791Z,0
2019-01-04T21:00:22.738Z,0
2019-01-04T21:03:28.699Z,0
2019-01-04T21:06:35.479Z,0
2019-01-04T21:09:41.448Z,0
2019-01-04T21:12:50.163Z,0
2019-01-04T21:15:56.121Z,0
2019-01-04T21:19:01.993Z,0
2019-01-04T21:22:08.023Z,0
2019-01-04T21:25:13.978Z,0
2019-01-04T21:28:19.970Z,0
2019-01-04T21:31:25.835Z,69.5
2019-01-04T21:34:31.774Z,118.1
2019-01-04T21:37:37.735Z,130.3
2019-01-04T21:40:43.608Z,0
2019-01-04T21:43:49.552Z,0
2019-01-04T21:46:55.423Z,0
2019-01-04T21:50:01.474Z,0
2019-01-04T21:53:07.533Z,0
2019-01-04T21:56:13.495Z,0
2019-01-04T21:59:19.452Z,0
2019-01-04T22:02:27.984Z,0
2019-01-04T22:05:33.945Z,0
2019-01-04T22:08:39.805Z,0
2019-01-04T22:11:45.748Z,0
2019-01-04T22:14:51.713Z,0
2019-01-04T22:17:57.669Z,0
2019-01-04T22:21:03.625Z,0
2019-01-04T22:24:09.499Z,0
2019-01-04T22:27:15.444Z,0
2019-01-04T22:30:21.401Z,0
2019-01-04T22:33:27.278Z,0
2019-01-04T22:36:33.221Z,0
2019-01-04T22:39:39.282Z,0
2019-01-04T22:42:46.189Z,0
2019-01-04T22:45:55.093Z,0
2019-01-04T22:49:00.967Z,0
2019-01-04T22:52:06.909Z,0
2019-01-04T22:55:12.789Z,0
2019-01-04T22:58:18.730Z,0
2019-01-04T23:01:24.682Z,0
2019-01-04T23:04:30.601Z,0
2019-01-04T23:07:36.499Z,0
2019-01-04T23:10:42.567Z,0
2019-01-04T23:13:48.526Z,0
2019-01-04T23:16:54.585Z,0
2019-01-04T23:20:00.543Z,0
2019-01-04T23:23:09.004Z,0
2019-01-04T23:26:20.740Z,0
2019-01-04T23:29:26.774Z,0
2019-01-04T23:32:32.780Z,0
2019-01-04T23:35:38.842Z,0
2019-01-04T23:38:44.713Z,0
2019-01-04T23:41:50.662Z,0
2019-01-04T23:44:59.438Z,0
2019-01-04T23:48:08.314Z,0
2019-01-04T23:51:14.186Z,0
2019-01-04T23:54:20.234Z,0
2019-01-04T23:57:26.195Z,0
